Time;durP1;ratioP1;P1;durP2;ratioP2;P2;SDS_P1;SDS_P2;PMS_P1;PMS_P2;Temp;Humidity;BMP_temperature;BMP_pressure;BME280_temperature;BME280_humidity;BME280_pressure;Samples;Min_cycle;Max_cycle;Signal;HPM_P1;HPM_P2
2023/03/02 00:00:53;;;;;;;30.33;26.70;;;4.10;90.20;;;;;;10477156;28;20195;-78
2023/03/02 00:05:56;;;;;;;30.23;26.93;;;4.00;90.40;;;;;;10493336;28;20559;-78
2023/03/02 00:11:01;;;;;;;34.07;28.57;;;3.90;90.30;;;;;;10477245;28;20197;-79
2023/03/02 00:16:03;;;;;;;31.53;25.90;;;3.90;90.60;;;;;;10476362;28;20232;-79
2023/03/02 00:21:09;;;;;;;32.57;28.13;;;3.80;90.60;;;;;;10488259;28;20192;-80
2023/03/02 00:26:12;;;;;;;29.40;25.67;;;3.80;90.40;;;;;;10495489;28;20214;-79
2023/03/02 00:31:15;;;;;;;31.43;27.80;;;3.70;90.60;;;;;;10457934;28;20206;-78
2023/03/02 00:36:19;;;;;;;29.17;26.00;;;3.70;90.60;;;;;;10493596;28;20225;-80
2023/03/02 00:41:22;;;;;;;33.80;30.00;;;3.60;90.90;;;;;;10490029;28;20195;-80
2023/03/02 00:46:27;;;;;;;31.93;28.53;;;3.70;90.80;;;;;;10493180;28;20371;-81
2023/03/02 00:51:29;;;;;;;29.37;26.17;;;3.60;90.80;;;;;;10498911;28;20259;-78
2023/03/02 00:56:32;;;;;;;29.97;26.07;;;3.60;90.80;;;;;;10484204;28;20229;-78
2023/03/02 01:01:36;;;;;;;30.20;25.47;;;3.60;91.10;;;;;;10479799;28;20201;-78
2023/03/02 01:06:45;;;;;;;32.03;28.63;;;3.60;90.90;;;;;;10485554;28;20197;-78
2023/03/02 01:11:49;;;;;;;31.93;28.43;;;3.50;90.80;;;;;;10486928;28;20223;-79
2023/03/02 01:16:51;;;;;;;30.50;26.73;;;3.50;91.00;;;;;;10478978;28;20249;-79
2023/03/02 01:21:53;;;;;;;31.77;27.77;;;3.40;90.80;;;;;;10485708;28;20221;-79
2023/03/02 01:26:58;;;;;;;31.50;26.53;;;3.40;91.10;;;;;;10485471;28;20234;-78
2023/03/02 01:32:00;;;;;;;29.50;25.90;;;3.50;91.00;;;;;;10465759;28;20291;-78
2023/03/02 01:37:02;;;;;;;30.83;27.40;;;3.50;91.00;;;;;;10464826;28;20309;-78
2023/03/02 01:42:05;;;;;;;31.53;28.30;;;3.50;90.90;;;;;;10484050;28;20220;-78
2023/03/02 01:47:17;;;;;;;29.80;26.60;;;3.40;90.90;;;;;;10472187;28;20198;-78
2023/03/02 01:52:29;;;;;;;31.60;26.70;;;3.40;90.70;;;;;;10491464;28;20217;-78
2023/03/02 01:57:42;;;;;;;32.10;26.83;;;3.40;91.00;;;;;;10498656;28;20223;-78
2023/03/02 02:02:45;;;;;;;29.60;26.40;;;3.40;91.10;;;;;;10468560;28;20662;-78
2023/03/02 02:07:47;;;;;;;32.43;28.90;;;3.30;90.90;;;;;;10478732;28;20263;-78
2023/03/02 02:12:51;;;;;;;35.10;29.10;;;3.30;90.90;;;;;;10450285;28;20689;-78
2023/03/02 02:17:54;;;;;;;32.77;29.00;;;3.30;91.20;;;;;;10481394;28;20217;-78
2023/03/02 02:23:06;;;;;;;31.90;27.07;;;3.30;91.20;;;;;;10476440;28;20213;-78
2023/03/02 02:28:14;;;;;;;30.43;27.23;;;3.30;91.10;;;;;;10478372;28;20225;-78
2023/03/02 02:33:20;;;;;;;31.50;28.10;;;3.20;91.10;;;;;;10484202;28;20228;-78
2023/03/02 02:38:24;;;;;;;31.70;28.20;;;3.20;91.10;;;;;;10479104;28;20271;-79
2023/03/02 02:43:30;;;;;;;32.17;28.77;;;3.10;91.30;;;;;;10486387;28;20286;-78
2023/03/02 02:48:33;;;;;;;33.90;28.80;;;3.10;91.50;;;;;;10478669;28;20198;-78
2023/03/02 02:53:43;;;;;;;34.70;28.83;;;3.10;91.50;;;;;;10481294;28;20248;-78
2023/03/02 02:58:49;;;;;;;35.10;30.03;;;3.00;91.30;;;;;;10474520;28;20597;-78
2023/03/02 03:03:53;;;;;;;32.40;28.13;;;3.00;91.40;;;;;;10475919;28;20217;-78
2023/03/02 03:09:00;;;;;;;32.17;28.20;;;3.00;91.60;;;;;;10457541;28;20186;-78
2023/03/02 03:14:15;;;;;;;29.27;23.40;;;3.00;91.50;;;;;;10441689;28;20225;-77
2023/03/02 03:19:22;;;;;;;54.27;39.90;;;3.00;91.50;;;;;;10482007;28;20277;-78
2023/03/02 03:24:27;;;;;;;34.40;29.97;;;2.90;91.70;;;;;;10480524;28;20216;-77
2023/03/02 03:29:33;;;;;;;35.90;30.70;;;2.90;91.50;;;;;;10493370;28;20192;-78
2023/03/02 03:34:39;;;;;;;34.00;30.00;;;2.90;91.50;;;;;;10454580;28;20253;-78
2023/03/02 03:39:44;;;;;;;42.00;33.70;;;2.90;91.50;;;;;;10457135;28;20221;-78
2023/03/02 03:44:47;;;;;;;35.37;31.13;;;2.80;91.80;;;;;;10482336;28;20552;-78
2023/03/02 03:49:50;;;;;;;32.90;28.50;;;2.90;91.50;;;;;;10483805;28;20283;-78
2023/03/02 03:54:53;;;;;;;34.03;30.40;;;2.90;91.70;;;;;;10473250;28;20240;-79
2023/03/02 03:59:59;;;;;;;32.60;29.13;;;2.90;91.80;;;;;;10444252;28;20281;-78
2023/03/02 04:05:05;;;;;;;37.50;29.60;;;2.90;91.80;;;;;;10459249;28;20241;-77
2023/03/02 04:10:09;;;;;;;39.90;34.07;;;2.80;91.70;;;;;;10491826;28;20669;-78
2023/03/02 04:15:16;;;;;;;35.73;30.50;;;2.80;92.10;;;;;;10472597;28;20276;-78
2023/03/02 04:20:22;;;;;;;33.87;30.17;;;2.90;92.00;;;;;;10484591;28;20200;-79
2023/03/02 04:25:29;;;;;;;35.83;30.30;;;2.90;91.70;;;;;;10478755;28;20226;-80
2023/03/02 04:30:40;;;;;;;34.10;30.50;;;2.90;91.70;;;;;;10504374;28;20221;-78
2023/03/02 04:35:43;;;;;;;34.50;30.27;;;2.90;91.90;;;;;;10463673;28;20226;-79
2023/03/02 04:40:45;;;;;;;33.07;29.47;;;2.90;91.70;;;;;;10465475;28;20205;-79
2023/03/02 04:45:49;;;;;;;38.93;30.90;;;2.80;91.80;;;;;;10461779;28;20224;-78
2023/03/02 04:50:51;;;;;;;34.30;30.23;;;2.80;92.00;;;;;;10495045;28;20189;-79
2023/03/02 04:55:53;;;;;;;35.90;30.17;;;2.70;92.00;;;;;;10500888;28;20213;-80
2023/03/02 05:01:00;;;;;;;33.73;29.93;;;2.80;92.20;;;;;;10473991;28;20658;-77
2023/03/02 05:06:03;;;;;;;34.20;30.50;;;2.80;92.20;;;;;;10496503;28;20219;-78
2023/03/02 05:11:07;;;;;;;33.30;29.80;;;2.80;92.40;;;;;;10497675;28;20761;-79
2023/03/02 05:16:11;;;;;;;34.70;31.00;;;2.90;92.10;;;;;;10468307;28;20340;-79
2023/03/02 05:21:14;;;;;;;36.83;32.13;;;2.90;92.30;;;;;;10440349;28;20281;-78
2023/03/02 05:26:16;;;;;;;36.13;30.47;;;3.00;92.80;;;;;;10480282;28;20244;-77
2023/03/02 05:31:23;;;;;;;38.30;31.50;;;3.10;92.30;;;;;;10496433;28;20707;-79
2023/03/02 05:36:25;;;;;;;38.30;31.07;;;3.20;92.40;;;;;;10497628;28;20213;-78
2023/03/02 05:41:30;;;;;;;35.13;29.87;;;3.20;92.50;;;;;;10494417;28;20665;-78
2023/03/02 05:46:34;;;;;;;34.67;30.60;;;3.30;92.80;;;;;;10472661;28;20189;-77
2023/03/02 05:51:37;;;;;;;32.70;29.27;;;3.50;92.60;;;;;;10476904;28;20198;-79
2023/03/02 05:56:39;;;;;;;34.83;31.00;;;3.60;92.80;;;;;;10471315;28;20209;-77
2023/03/02 06:01:43;;;;;;;38.07;30.27;;;3.80;92.30;;;;;;10488349;28;20226;-78
2023/03/02 06:06:45;;;;;;;35.70;29.90;;;3.90;91.80;;;;;;10469592;28;20245;-80
2023/03/02 06:11:47;;;;;;;32.17;28.47;;;4.00;91.80;;;;;;10455659;28;20254;-79
2023/03/02 06:16:50;;;;;;;33.83;28.97;;;4.20;91.90;;;;;;10495468;28;20265;-77
2023/03/02 06:21:53;;;;;;;36.03;29.77;;;4.30;91.50;;;;;;10449902;28;20228;-78
2023/03/02 06:26:55;;;;;;;35.13;29.50;;;4.40;91.60;;;;;;10478197;28;20211;-79
2023/03/02 06:31:58;;;;;;;35.43;30.40;;;4.50;91.40;;;;;;10476451;28;20715;-79
2023/03/02 06:37:00;;;;;;;32.20;28.03;;;4.60;91.20;;;;;;10459492;28;20271;-80
2023/03/02 06:42:02;;;;;;;32.80;27.70;;;4.60;91.00;;;;;;10454490;28;20247;-78
2023/03/02 06:47:06;;;;;;;32.67;28.27;;;4.70;90.80;;;;;;10472379;28;20184;-80
2023/03/02 06:52:09;;;;;;;34.23;29.30;;;4.70;90.80;;;;;;10484468;28;20214;-79
2023/03/02 06:57:11;;;;;;;33.57;28.20;;;4.80;90.30;;;;;;10457733;28;20214;-81
2023/03/02 07:02:15;;;;;;;34.93;28.93;;;4.80;90.60;;;;;;10472936;28;20210;-78
2023/03/02 07:07:17;;;;;;;33.20;28.80;;;4.90;91.00;;;;;;10454424;28;20190;-80
2023/03/02 07:12:19;;;;;;;33.83;28.70;;;4.90;91.10;;;;;;10454640;28;20226;-80
2023/03/02 07:17:22;;;;;;;35.73;28.97;;;5.00;90.70;;;;;;10472563;28;20205;-82
2023/03/02 07:22:24;;;;;;;31.30;27.90;;;5.00;90.50;;;;;;10445613;28;20607;-79
2023/03/02 07:27:27;;;;;;;36.43;29.00;;;5.10;90.50;;;;;;10454256;28;20197;-78
2023/03/02 07:32:30;;;;;;;32.00;28.50;;;5.10;90.10;;;;;;10478933;28;20225;-79
2023/03/02 07:37:32;;;;;;;32.47;27.60;;;5.20;90.50;;;;;;10478879;28;20246;-78
2023/03/02 07:42:34;;;;;;;32.43;27.27;;;5.20;90.70;;;;;;10471575;28;20213;-78
2023/03/02 07:47:39;;;;;;;33.03;28.20;;;5.30;90.50;;;;;;10453559;28;20194;-80
2023/03/02 07:52:41;;;;;;;32.37;25.70;;;5.40;90.30;;;;;;10489580;28;20235;-77
2023/03/02 07:57:43;;;;;;;30.70;25.70;;;5.50;90.30;;;;;;10477624;28;20683;-78
2023/03/02 08:02:47;;;;;;;30.80;27.33;;;5.50;90.20;;;;;;10476357;28;20625;-79
2023/03/02 08:07:49;;;;;;;33.70;27.03;;;5.60;90.10;;;;;;10464474;28;20348;-80
2023/03/02 08:12:51;;;;;;;32.70;26.60;;;5.70;90.20;;;;;;10479569;28;20740;-77
2023/03/02 08:17:54;;;;;;;33.03;27.60;;;5.90;90.40;;;;;;10468765;28;20253;-79
2023/03/02 08:22:57;;;;;;;30.00;26.13;;;6.00;89.90;;;;;;10455128;28;20701;-80
2023/03/02 08:27:59;;;;;;;28.00;24.97;;;6.10;90.00;;;;;;10494574;28;20226;-81
2023/03/02 08:33:02;;;;;;;35.13;27.40;;;6.20;89.60;;;;;;10519132;22;20227;-85
2023/03/02 08:38:04;;;;;;;28.60;25.47;;;6.40;88.30;;;;;;10565759;28;20239;-84
2023/03/02 08:43:07;;;;;;;32.80;26.90;;;6.40;89.20;;;;;;10587105;28;20216;-85
2023/03/02 08:48:10;;;;;;;27.40;24.60;;;6.50;87.50;;;;;;10588978;28;20195;-84
2023/03/02 08:53:12;;;;;;;32.90;24.50;;;6.60;88.20;;;;;;10588429;28;20213;-84
2023/03/02 08:58:15;;;;;;;29.07;25.90;;;6.70;87.70;;;;;;10589117;28;20211;-84
2023/03/02 09:03:18;;;;;;;29.50;25.23;;;6.80;87.70;;;;;;10588269;28;20219;-84
2023/03/02 09:08:20;;;;;;;28.10;25.07;;;6.90;88.40;;;;;;10586319;28;20192;-84
2023/03/02 09:13:22;;;;;;;28.20;25.00;;;7.00;87.70;;;;;;10587815;28;20217;-84
2023/03/02 09:18:27;;;;;;;27.57;24.33;;;7.10;88.00;;;;;;10579881;28;20215;-84
2023/03/02 09:23:30;;;;;;;31.53;25.80;;;7.20;87.50;;;;;;10590831;28;20208;-84
2023/03/02 09:28:33;;;;;;;30.50;26.10;;;7.20;87.90;;;;;;10574368;28;20217;-84
2023/03/02 09:33:36;;;;;;;27.90;24.77;;;7.40;87.60;;;;;;10573719;28;20583;-84
2023/03/02 09:38:38;;;;;;;26.80;23.23;;;7.50;87.70;;;;;;10575988;28;20213;-84
2023/03/02 09:43:50;;;;;;;29.53;24.27;;;7.60;87.80;;;;;;10586767;28;20307;-84
2023/03/02 09:49:07;;;;;;;29.80;22.97;;;7.70;87.10;;;;;;10566430;28;20203;-84
2023/03/02 09:54:11;;;;;;;28.77;25.77;;;7.90;85.90;;;;;;10569430;28;20700;-84
2023/03/02 09:59:24;;;;;;;30.37;24.30;;;8.00;86.40;;;;;;10569844;28;20762;-84
2023/03/02 10:04:30;;;;;;;25.70;23.17;;;8.20;86.50;;;;;;10567380;28;20207;-84
2023/03/02 10:09:32;;;;;;;26.40;23.20;;;8.40;86.20;;;;;;10567727;28;20274;-84
2023/03/02 10:14:39;;;;;;;33.90;24.20;;;8.50;86.10;;;;;;10570259;27;20303;-84
2023/03/02 10:19:46;;;;;;;27.90;23.57;;;8.70;84.40;;;;;;10577927;28;20254;-84
2023/03/02 10:24:56;;;;;;;26.37;22.23;;;8.80;85.70;;;;;;10571300;28;20304;-84
2023/03/02 10:30:02;;;;;;;25.17;21.73;;;8.90;85.40;;;;;;10571227;28;20225;-84
2023/03/02 10:35:15;;;;;;;25.03;22.43;;;8.90;85.10;;;;;;10573464;28;20220;-84
2023/03/02 10:40:36;;;;;;;23.90;20.60;;;8.90;86.20;;;;;;10584823;28;20215;-84
2023/03/02 10:45:38;;;;;;;27.07;23.30;;;8.90;85.40;;;;;;10566690;28;20220;-84
2023/03/02 10:50:43;;;;;;;26.90;23.33;;;8.80;85.80;;;;;;10567749;28;20200;-84
2023/03/02 10:55:47;;;;;;;30.40;24.20;;;8.70;85.90;;;;;;10572845;28;20219;-84
2023/03/02 11:00:57;;;;;;;36.27;31.37;;;8.50;87.30;;;;;;10588402;28;20208;-84
2023/03/02 11:06:18;;;;;;;27.67;24.07;;;8.40;87.40;;;;;;10567739;28;20267;-85
2023/03/02 11:11:22;;;;;;;27.17;24.13;;;8.20;87.10;;;;;;10582830;28;20206;-85
2023/03/02 11:16:28;;;;;;;34.63;28.13;;;8.10;87.60;;;;;;10565254;28;20272;-85
2023/03/02 11:21:35;;;;;;;28.73;24.30;;;8.00;88.80;;;;;;10581338;28;20196;-85
2023/03/02 11:26:44;;;;;;;27.40;23.50;;;8.00;88.40;;;;;;10565344;28;20242;-84
2023/03/02 11:31:50;;;;;;;31.17;24.67;;;8.00;88.90;;;;;;10583556;28;20218;-85
2023/03/02 11:37:04;;;;;;;26.47;23.57;;;8.00;89.80;;;;;;10563758;28;20251;-85
2023/03/02 11:42:19;;;;;;;25.70;23.10;;;8.00;88.30;;;;;;10582426;28;20196;-85
2023/03/02 11:47:22;;;;;;;28.40;22.87;;;8.00;89.50;;;;;;10546367;28;20650;-85
2023/03/02 11:52:30;;;;;;;28.73;23.40;;;8.00;90.30;;;;;;10564332;28;20250;-85
2023/03/02 11:57:34;;;;;;;29.63;24.17;;;8.00;89.30;;;;;;10559947;28;20230;-85
2023/03/02 12:02:37;;;;;;;26.40;22.53;;;8.00;90.20;;;;;;10580986;28;20608;-85
2023/03/02 12:07:40;;;;;;;24.80;22.20;;;8.10;90.00;;;;;;10579566;28;20593;-85
2023/03/02 12:12:46;;;;;;;28.97;24.90;;;8.10;90.10;;;;;;10564102;28;20219;-85
2023/03/02 12:17:49;;;;;;;26.97;24.10;;;8.20;89.50;;;;;;10587157;28;20579;-85
2023/03/02 12:22:53;;;;;;;28.67;23.33;;;8.20;89.40;;;;;;10590478;28;20225;-85
2023/03/02 12:27:55;;;;;;;27.70;23.87;;;8.20;90.30;;;;;;10570692;28;20185;-85
2023/03/02 12:33:19;;;;;;;30.97;25.03;;;8.30;89.80;;;;;;10569789;28;20269;-85
2023/03/02 12:38:29;;;;;;;32.10;26.30;;;8.30;90.00;;;;;;10570585;28;20242;-85
2023/03/02 12:43:32;;;;;;;32.23;24.67;;;8.40;88.70;;;;;;10587878;28;20277;-85
2023/03/02 12:48:42;;;;;;;26.10;23.27;;;8.40;90.20;;;;;;10571541;28;20195;-85
2023/03/02 12:53:45;;;;;;;29.57;22.03;;;8.40;90.00;;;;;;10570677;28;20225;-85
2023/03/02 12:58:49;;;;;;;26.87;23.97;;;8.50;90.30;;;;;;10568197;28;20221;-85
2023/03/02 13:03:52;;;;;;;22.17;19.60;;;8.50;90.70;;;;;;10588759;28;20223;-85
2023/03/02 13:08:58;;;;;;;24.17;21.10;;;8.50;90.30;;;;;;10571689;28;20192;-85
2023/03/02 13:14:02;;;;;;;25.80;23.00;;;8.50;90.80;;;;;;10570455;28;20227;-84
2023/03/02 13:19:13;;;;;;;21.80;19.50;;;8.50;90.60;;;;;;10571858;28;20226;-86
2023/03/02 13:24:46;;;;;;;27.93;21.33;;;8.60;90.70;;;;;;10571296;28;20212;-85
2023/03/02 13:29:48;;;;;;;25.50;21.27;;;8.60;91.10;;;;;;10570891;28;20197;-84
2023/03/02 13:34:53;;;;;;;23.50;20.00;;;8.60;91.30;;;;;;10572581;28;20228;-84
2023/03/02 13:39:57;;;;;;;25.10;21.53;;;8.60;91.60;;;;;;10571254;28;20223;-84
2023/03/02 13:45:13;;;;;;;24.67;22.17;;;8.70;91.30;;;;;;10572071;28;20216;-84
2023/03/02 13:50:21;;;;;;;25.53;22.47;;;8.70;91.10;;;;;;10589044;28;20185;-85
2023/03/02 13:55:25;;;;;;;27.23;22.70;;;8.70;91.10;;;;;;10571111;28;20693;-85
2023/03/02 14:00:32;;;;;;;27.83;24.80;;;8.80;91.20;;;;;;10570091;28;20309;-84
2023/03/02 14:05:34;;;;;;;25.83;23.27;;;8.80;91.20;;;;;;10578560;28;20215;-85
2023/03/02 14:10:40;;;;;;;30.50;23.27;;;8.90;91.00;;;;;;10587246;28;20185;-84
2023/03/02 14:15:46;;;;;;;25.50;22.87;;;9.00;90.40;;;;;;10572391;28;20211;-85
2023/03/02 14:20:49;;;;;;;24.40;21.80;;;9.00;90.70;;;;;;10589365;28;20221;-85
2023/03/02 14:25:53;;;;;;;26.97;21.77;;;9.10;90.20;;;;;;10572852;28;20211;-84
2023/03/02 14:30:57;;;;;;;27.63;24.13;;;9.20;90.30;;;;;;10587470;28;20648;-84
2023/03/02 14:35:59;;;;;;;26.67;23.50;;;9.20;90.40;;;;;;10554896;22;20225;-76
2023/03/02 14:41:03;;;;;;;26.33;22.37;;;9.20;90.90;;;;;;10519079;28;20218;-83
2023/03/02 14:46:06;;;;;;;26.57;23.40;;;9.20;90.60;;;;;;10489984;28;20230;-79
2023/03/02 14:51:20;;;;;;;28.17;24.10;;;9.20;90.70;;;;;;10507602;28;20191;-77
2023/03/02 14:56:24;;;;;;;28.80;23.30;;;9.20;91.20;;;;;;10505662;28;20243;-77
2023/03/02 15:01:26;;;;;;;25.43;22.83;;;9.20;91.20;;;;;;10494473;28;20684;-78
2023/03/02 15:06:30;;;;;;;26.87;22.97;;;9.20;91.30;;;;;;10484818;28;20586;-77
2023/03/02 15:11:33;;;;;;;25.37;22.30;;;9.20;91.10;;;;;;10494149;28;20199;-78
2023/03/02 15:16:36;;;;;;;26.50;23.70;;;9.20;91.40;;;;;;10525333;28;20313;-78
2023/03/02 15:21:43;;;;;;;25.67;22.87;;;9.20;91.50;;;;;;10511985;28;20219;-77
2023/03/02 15:26:46;;;;;;;26.40;22.70;;;9.20;91.50;;;;;;10506312;28;20311;-77
2023/03/02 15:31:48;;;;;;;28.90;23.67;;;9.20;91.80;;;;;;10524874;28;20536;-78
2023/03/02 15:36:50;;;;;;;25.57;22.70;;;9.20;91.80;;;;;;10510341;28;20601;-77
2023/03/02 15:41:54;;;;;;;26.73;24.00;;;9.20;92.00;;;;;;10507918;28;20242;-78
2023/03/02 15:46:58;;;;;;;26.93;23.63;;;9.20;91.70;;;;;;10522725;28;20680;-78
2023/03/02 15:52:00;;;;;;;25.30;22.70;;;9.20;91.40;;;;;;10513953;28;20223;-78
2023/03/02 15:57:03;;;;;;;25.33;22.67;;;9.20;91.70;;;;;;10526482;28;20285;-77
2023/03/02 16:02:05;;;;;;;28.10;24.87;;;9.20;91.60;;;;;;10524120;28;20225;-78
2023/03/02 16:07:07;;;;;;;38.00;28.90;;;9.20;92.30;;;;;;10529182;28;20260;-77
2023/03/02 16:12:11;;;;;;;25.07;22.37;;;9.10;91.50;;;;;;10517430;28;20643;-77
2023/03/02 16:17:13;;;;;;;29.83;23.97;;;9.10;91.90;;;;;;10516719;28;20197;-78
2023/03/02 16:22:15;;;;;;;23.87;21.37;;;9.10;92.20;;;;;;10508563;28;20273;-78
2023/03/02 16:27:18;;;;;;;24.37;21.90;;;9.10;92.00;;;;;;10531745;28;20203;-77
2023/03/02 16:32:21;;;;;;;28.50;24.70;;;9.00;92.00;;;;;;10516577;28;20200;-78
2023/03/02 16:37:23;;;;;;;37.10;31.47;;;9.00;92.70;;;;;;10533371;28;20195;-78
2023/03/02 16:42:29;;;;;;;31.57;27.73;;;9.00;92.60;;;;;;10526495;28;20197;-78
2023/03/02 16:47:33;;;;;;;30.83;24.87;;;8.90;92.80;;;;;;10537494;28;20244;-80
2023/03/02 16:52:35;;;;;;;30.43;24.93;;;8.90;92.80;;;;;;10523677;28;20221;-78
2023/03/02 16:57:38;;;;;;;34.63;30.80;;;8.80;92.50;;;;;;10524206;28;20322;-81
2023/03/02 17:02:41;;;;;;;27.23;24.27;;;8.80;92.20;;;;;;10504011;28;20273;-79
2023/03/02 17:07:43;;;;;;;25.50;22.70;;;8.70;91.70;;;;;;10522536;28;20649;-79
2023/03/02 17:12:46;;;;;;;25.03;21.97;;;8.80;91.30;;;;;;10526213;28;20220;-78
2023/03/02 17:17:48;;;;;;;30.40;23.30;;;8.80;91.30;;;;;;10528042;28;20201;-77
2023/03/02 17:22:50;;;;;;;29.43;23.70;;;8.80;91.50;;;;;;10526594;28;20215;-78
2023/03/02 17:27:54;;;;;;;29.07;23.90;;;8.80;91.30;;;;;;10522191;28;20198;-78
2023/03/02 17:32:56;;;;;;;29.60;23.87;;;8.80;91.40;;;;;;10494411;28;20230;-79
2023/03/02 17:37:58;;;;;;;28.60;24.27;;;8.70;91.50;;;;;;10505428;28;20224;-82
2023/03/02 17:43:01;;;;;;;28.73;24.07;;;8.70;92.00;;;;;;10513781;28;20220;-80
2023/03/02 17:48:04;;;;;;;26.00;23.20;;;8.80;91.50;;;;;;10517909;28;20218;-83
2023/03/02 17:53:06;;;;;;;32.07;23.90;;;8.70;91.80;;;;;;10520053;28;20697;-77
2023/03/02 17:58:10;;;;;;;28.47;24.17;;;8.70;91.60;;;;;;10540022;28;20228;-79
2023/03/02 18:03:12;;;;;;;31.13;23.10;;;8.60;91.80;;;;;;10527235;28;20234;-79
2023/03/02 18:08:14;;;;;;;28.37;25.17;;;8.60;91.80;;;;;;10496994;28;20199;-82
2023/03/02 18:13:18;;;;;;;31.33;26.43;;;8.50;92.10;;;;;;10511027;28;20268;-80
2023/03/02 18:18:20;;;;;;;31.17;26.50;;;8.50;91.70;;;;;;10498556;28;20216;-78
2023/03/02 18:23:22;;;;;;;30.40;26.03;;;8.40;91.50;;;;;;10497299;28;20221;-78
2023/03/02 18:28:26;;;;;;;28.73;25.70;;;8.40;91.70;;;;;;10497526;28;20203;-79
2023/03/02 18:33:31;;;;;;;29.77;26.33;;;8.30;91.90;;;;;;10492863;28;20238;-79
2023/03/02 18:38:34;;;;;;;29.43;26.37;;;8.30;91.40;;;;;;10500440;28;20213;-79
2023/03/02 18:43:41;;;;;;;34.07;27.37;;;8.10;91.60;;;;;;10483917;28;20217;-78
2023/03/02 18:48:43;;;;;;;31.53;27.47;;;7.90;91.80;;;;;;10498689;28;20714;-79
2023/03/02 18:53:46;;;;;;;31.00;27.27;;;7.80;91.80;;;;;;10504457;28;20255;-79
2023/03/02 18:58:50;;;;;;;31.43;28.00;;;7.70;92.20;;;;;;10494977;28;20683;-78
2023/03/02 19:03:55;;;;;;;33.10;29.30;;;7.60;92.20;;;;;;10500955;28;20222;-78
2023/03/02 19:08:58;;;;;;;32.20;28.23;;;7.50;92.10;;;;;;10483789;28;20673;-79
2023/03/02 19:14:01;;;;;;;34.20;28.80;;;7.40;92.40;;;;;;10511718;28;20304;-75
2023/03/02 19:19:04;;;;;;;34.60;30.90;;;7.40;92.40;;;;;;10534299;28;20230;-77
2023/03/02 19:24:07;;;;;;;45.17;37.17;;;7.40;92.40;;;;;;10518073;28;20641;-77
2023/03/02 19:29:10;;;;;;;35.90;30.50;;;7.40;92.10;;;;;;10492664;28;20191;-79
2023/03/02 19:34:12;;;;;;;40.50;35.43;;;7.30;92.10;;;;;;10503818;28;20266;-79
2023/03/02 19:39:15;;;;;;;36.30;30.90;;;7.40;92.20;;;;;;10514366;28;20221;-79
2023/03/02 19:44:19;;;;;;;39.70;31.83;;;7.40;92.00;;;;;;10505523;28;20228;-78
2023/03/02 19:49:21;;;;;;;38.87;33.27;;;7.40;91.90;;;;;;10487864;28;20194;-79
2023/03/02 19:54:23;;;;;;;40.70;34.20;;;7.30;92.00;;;;;;10506586;28;20228;-78
2023/03/02 19:59:28;;;;;;;40.37;33.83;;;7.30;91.90;;;;;;10521281;28;20244;-78
2023/03/02 20:04:30;;;;;;;39.33;30.83;;;7.30;92.20;;;;;;10505822;28;20217;-78
2023/03/02 20:09:32;;;;;;;35.10;29.70;;;7.20;92.00;;;;;;10507277;28;20235;-78
2023/03/02 20:14:37;;;;;;;35.13;31.23;;;7.30;91.90;;;;;;10529847;28;20224;-79
2023/03/02 20:19:43;;;;;;;36.83;29.90;;;7.20;91.90;;;;;;10507112;28;20218;-77
2023/03/02 20:24:45;;;;;;;35.70;29.60;;;7.10;92.10;;;;;;10527059;28;20216;-80
2023/03/02 20:29:49;;;;;;;36.37;32.60;;;7.00;91.90;;;;;;10488201;28;20195;-78
2023/03/02 20:34:51;;;;;;;35.90;31.80;;;6.80;92.20;;;;;;10496575;28;20704;-78
2023/03/02 20:39:53;;;;;;;42.87;33.60;;;6.70;92.10;;;;;;10509192;28;20273;-78
2023/03/02 20:44:58;;;;;;;42.83;35.03;;;6.60;92.30;;;;;;10503857;28;20717;-77
2023/03/02 20:50:00;;;;;;;36.10;31.10;;;6.40;92.40;;;;;;10490484;28;20200;-76
2023/03/02 20:55:03;;;;;;;40.70;32.47;;;6.30;92.50;;;;;;10517601;28;20268;-78
2023/03/02 21:00:10;;;;;;;40.57;32.23;;;6.30;92.50;;;;;;10492496;28;20215;-77
2023/03/02 21:05:12;;;;;;;37.77;31.67;;;6.10;92.70;;;;;;10515521;28;20410;-79
2023/03/02 21:10:18;;;;;;;36.33;32.40;;;6.00;92.80;;;;;;10524657;28;20289;-79
2023/03/02 21:15:22;;;;;;;38.90;33.30;;;5.90;93.00;;;;;;10489996;28;20215;-80
2023/03/02 21:20:28;;;;;;;35.53;31.77;;;5.90;93.20;;;;;;10488205;28;20228;-79
2023/03/02 21:25:30;;;;;;;37.07;31.60;;;5.90;93.30;;;;;;10514011;28;20226;-77
2023/03/02 21:30:34;;;;;;;41.47;32.80;;;5.90;93.40;;;;;;10489759;28;20194;-79
2023/03/02 21:35:36;;;;;;;40.30;32.97;;;5.90;93.10;;;;;;10513553;28;20256;-77
2023/03/02 21:40:44;;;;;;;36.10;32.20;;;5.90;93.30;;;;;;10499666;28;20208;-77
2023/03/02 21:45:48;;;;;;;34.73;30.93;;;5.80;93.40;;;;;;10496549;28;20672;-76
2023/03/02 21:50:50;;;;;;;39.50;32.70;;;5.80;93.10;;;;;;10491148;28;20191;-77
2023/03/02 21:55:53;;;;;;;37.33;33.23;;;5.80;92.90;;;;;;10493977;28;20220;-75
2023/03/02 22:00:57;;;;;;;37.73;32.67;;;5.70;92.80;;;;;;10502313;28;20240;-78
2023/03/02 22:05:59;;;;;;;39.23;33.37;;;5.60;93.00;;;;;;10501174;28;20234;-77
2023/03/02 22:11:01;;;;;;;37.50;32.27;;;5.50;92.90;;;;;;10497506;28;20196;-78
2023/03/02 22:16:13;;;;;;;39.73;33.83;;;5.40;92.90;;;;;;10499697;28;20217;-77
2023/03/02 22:21:28;;;;;;;42.67;32.93;;;5.40;93.30;;;;;;10490875;28;20209;-79
2023/03/02 22:26:30;;;;;;;40.00;32.50;;;5.30;93.20;;;;;;10518994;28;20212;-79
2023/03/02 22:31:34;;;;;;;42.17;32.23;;;5.30;93.30;;;;;;10533356;28;20197;-79
2023/03/02 22:36:38;;;;;;;51.27;36.53;;;5.20;93.40;;;;;;10524702;28;20227;-77
2023/03/02 22:41:40;;;;;;;50.67;36.57;;;5.20;93.50;;;;;;10510479;28;20212;-78
2023/03/02 22:46:44;;;;;;;37.23;31.73;;;5.10;93.90;;;;;;10508204;28;20225;-77
2023/03/02 22:51:46;;;;;;;40.17;31.30;;;5.10;93.40;;;;;;10495459;28;20243;-80
2023/03/02 22:56:50;;;;;;;41.63;33.60;;;5.10;93.60;;;;;;10497606;28;20240;-79
2023/03/02 23:02:02;;;;;;;41.17;33.10;;;5.10;93.70;;;;;;10531440;28;20205;-77
2023/03/02 23:07:16;;;;;;;42.07;35.57;;;5.10;94.10;;;;;;10524979;28;20190;-78
2023/03/02 23:12:31;;;;;;;39.50;33.70;;;5.20;93.80;;;;;;10507391;28;20192;-80
2023/03/02 23:17:37;;;;;;;46.53;37.40;;;5.30;93.70;;;;;;10534406;28;20283;-79
2023/03/02 23:22:39;;;;;;;43.87;35.03;;;5.20;93.90;;;;;;10529074;28;20232;-79
2023/03/02 23:27:42;;;;;;;44.00;34.53;;;5.30;94.10;;;;;;10489036;28;20223;-78
2023/03/02 23:32:45;;;;;;;37.50;32.80;;;5.30;93.90;;;;;;10524355;28;20278;-77
2023/03/02 23:37:47;;;;;;;42.40;35.70;;;5.30;93.90;;;;;;10518116;28;20262;-78
2023/03/02 23:43:00;;;;;;;43.00;32.27;;;5.40;94.20;;;;;;10515054;28;20212;-81
2023/03/02 23:48:17;;;;;;;41.57;35.43;;;5.40;94.30;;;;;;10532016;28;20194;-79
2023/03/02 23:53:20;;;;;;;41.13;32.27;;;5.40;94.30;;;;;;10519660;28;20240;-79
2023/03/02 23:58:22;;;;;;;41.17;33.80;;;5.40;94.30;;;;;;10528320;28;20202;-79
